Time;durP1;ratioP1;P1;durP2;ratioP2;P2;SDS_P1;SDS_P2;PMS_P1;PMS_P2;Temp;Humidity;BMP_temperature;BMP_pressure;BME280_temperature;BME280_humidity;BME280_pressure;Samples;Min_cycle;Max_cycle;Signal;HPM_P1;HPM_P2
2021/03/10 00:01:16;;;;;;;7.65;4.72;;;11.20;89.60;;;;;;5033610;28;20048;-72
2021/03/10 00:03:44;;;;;;;6.90;4.72;;;11.30;89.70;;;;;;5034357;28;20064;-72
2021/03/10 00:06:11;;;;;;;7.07;4.90;;;11.30;89.40;;;;;;5037812;28;20096;-72
2021/03/10 00:08:40;;;;;;;7.05;5.20;;;11.20;89.80;;;;;;5039140;28;20132;-72
2021/03/10 00:11:07;;;;;;;8.07;5.65;;;11.20;89.90;;;;;;5018975;28;20140;-72
2021/03/10 00:13:35;;;;;;;7.75;5.40;;;11.20;89.70;;;;;;5033381;28;20045;-73
2021/03/10 00:16:03;;;;;;;7.03;5.65;;;11.20;90.00;;;;;;5031870;28;20045;-72
2021/03/10 00:18:31;;;;;;;8.25;5.03;;;11.20;90.00;;;;;;5032456;28;20041;-72
2021/03/10 00:20:58;;;;;;;9.48;5.35;;;11.10;89.70;;;;;;5033085;28;20041;-72
2021/03/10 00:23:25;;;;;;;6.78;5.43;;;11.20;89.80;;;;;;5020646;28;20130;-72
2021/03/10 00:25:54;;;;;;;7.00;5.53;;;11.30;89.80;;;;;;5031012;28;20056;-72
2021/03/10 00:28:21;;;;;;;8.18;5.43;;;11.30;89.70;;;;;;5037478;28;21257;-72
2021/03/10 00:30:48;;;;;;;6.88;5.07;;;11.10;90.00;;;;;;5031106;28;20234;-72
2021/03/10 00:33:16;;;;;;;7.45;4.60;;;11.00;90.10;;;;;;5038215;28;20123;-72
2021/03/10 00:35:44;;;;;;;6.40;5.10;;;10.90;90.60;;;;;;5036221;28;20068;-72
2021/03/10 00:38:11;;;;;;;8.93;5.43;;;10.90;91.60;;;;;;5036595;28;20065;-72
2021/03/10 00:40:39;;;;;;;6.95;5.22;;;10.80;91.50;;;;;;5030498;28;20059;-72
2021/03/10 00:43:07;;;;;;;7.03;4.93;;;10.80;91.30;;;;;;5038498;28;20060;-72
2021/03/10 00:45:34;;;;;;;8.52;5.90;;;10.80;91.30;;;;;;5032463;28;20049;-72
2021/03/10 00:48:02;;;;;;;7.20;4.85;;;10.70;91.50;;;;;;5016317;28;20042;-72
2021/03/10 00:50:34;;;;;;;8.18;5.28;;;10.70;91.70;;;;;;5033019;28;20041;-73
2021/03/10 00:53:01;;;;;;;7.85;6.00;;;10.70;91.70;;;;;;5036041;28;20063;-72
2021/03/10 00:55:28;;;;;;;6.28;4.60;;;10.70;91.50;;;;;;5031819;28;20045;-72
2021/03/10 00:57:55;;;;;;;8.85;5.45;;;10.80;91.20;;;;;;5028029;28;20048;-72
2021/03/10 01:00:24;;;;;;;7.20;5.07;;;10.90;90.90;;;;;;5031376;28;20044;-72
2021/03/10 01:02:51;;;;;;;9.48;4.97;;;11.00;90.90;;;;;;5034069;28;20037;-72
2021/03/10 01:05:19;;;;;;;7.25;4.93;;;10.90;90.60;;;;;;5037037;28;20116;-72
2021/03/10 01:07:46;;;;;;;9.98;5.05;;;10.80;90.60;;;;;;5035029;28;20151;-72
2021/03/10 01:10:15;;;;;;;6.00;4.68;;;10.80;91.10;;;;;;5036362;28;20040;-72
2021/03/10 01:12:43;;;;;;;6.13;4.88;;;10.90;90.50;;;;;;5037123;28;20090;-72
2021/03/10 01:15:12;;;;;;;7.68;5.40;;;10.90;90.70;;;;;;5035402;28;20041;-72
2021/03/10 01:17:41;;;;;;;8.77;5.80;;;10.80;90.60;;;;;;5032568;28;20044;-72
2021/03/10 01:20:10;;;;;;;8.05;6.05;;;10.90;90.80;;;;;;5035616;28;20048;-72
2021/03/10 01:22:38;;;;;;;8.70;5.45;;;10.90;90.40;;;;;;5031006;28;20036;-72
2021/03/10 01:25:07;;;;;;;9.20;5.57;;;10.90;90.60;;;;;;5037408;28;20060;-72
2021/03/10 01:27:34;;;;;;;9.80;5.32;;;10.90;90.20;;;;;;5033589;28;20172;-72
2021/03/10 01:30:02;;;;;;;6.95;5.47;;;11.00;90.30;;;;;;5030576;28;20670;-72
2021/03/10 01:32:29;;;;;;;7.95;5.95;;;10.90;90.30;;;;;;5035421;28;20045;-72
2021/03/10 01:34:57;;;;;;;7.97;5.57;;;10.90;90.30;;;;;;5020608;28;20053;-72
2021/03/10 01:37:24;;;;;;;7.15;5.30;;;10.90;90.50;;;;;;5028122;28;20045;-71
2021/03/10 01:39:52;;;;;;;13.05;6.72;;;10.90;90.40;;;;;;5020820;28;20052;-71
2021/03/10 01:42:21;;;;;;;8.95;5.95;;;10.90;90.30;;;;;;5033980;28;20033;-74
2021/03/10 01:44:49;;;;;;;7.57;5.53;;;10.70;90.80;;;;;;5016843;28;20588;-73
2021/03/10 01:47:17;;;;;;;7.40;5.70;;;10.70;90.80;;;;;;5034037;28;20594;-73
2021/03/10 01:49:45;;;;;;;8.77;5.63;;;10.60;91.20;;;;;;5030627;28;20044;-73
2021/03/10 01:52:14;;;;;;;8.02;5.90;;;10.50;91.70;;;;;;5034163;28;20353;-73
2021/03/10 01:54:41;;;;;;;7.30;5.50;;;10.50;92.10;;;;;;5034695;28;20386;-73
2021/03/10 01:57:08;;;;;;;7.05;5.30;;;10.50;92.20;;;;;;5033003;28;20042;-73
2021/03/10 01:59:35;;;;;;;6.63;5.63;;;10.50;92.00;;;;;;5036877;28;20502;-73
2021/03/10 02:02:03;;;;;;;8.45;5.70;;;10.50;92.10;;;;;;5022223;28;20132;-73
2021/03/10 02:04:30;;;;;;;8.98;5.72;;;10.50;92.00;;;;;;5034224;28;20135;-72
2021/03/10 02:07:06;;;;;;;8.20;5.63;;;10.60;91.60;;;;;;5032168;28;20040;-73
2021/03/10 02:09:45;;;;;;;9.90;5.22;;;10.50;91.70;;;;;;5039311;28;20049;-73
2021/03/10 02:12:23;;;;;;;7.65;5.50;;;10.50;91.70;;;;;;5033901;28;20041;-73
2021/03/10 02:15:02;;;;;;;8.32;5.80;;;10.50;91.80;;;;;;5037688;28;20037;-73
2021/03/10 02:17:35;;;;;;;9.35;6.10;;;10.40;92.10;;;;;;5038268;28;20060;-73
2021/03/10 02:20:11;;;;;;;7.50;5.43;;;10.30;92.10;;;;;;5037712;28;20065;-73
2021/03/10 02:22:51;;;;;;;8.40;5.32;;;10.30;92.60;;;;;;5033078;28;20045;-73
2021/03/10 02:25:37;;;;;;;8.27;5.55;;;10.30;92.20;;;;;;5035042;28;20048;-73
2021/03/10 02:28:07;;;;;;;9.10;5.95;;;10.20;92.60;;;;;;5033770;28;20442;-73
2021/03/10 02:30:38;;;;;;;7.45;5.65;;;10.10;93.10;;;;;;5035005;28;20393;-73
2021/03/10 02:33:09;;;;;;;7.47;5.38;;;10.00;93.70;;;;;;5021665;28;20041;-73
2021/03/10 02:35:41;;;;;;;6.43;4.45;;;9.90;94.10;;;;;;5035090;28;20072;-73
2021/03/10 02:38:13;;;;;;;9.65;5.38;;;10.10;93.90;;;;;;5021023;28;20049;-73
2021/03/10 02:40:42;;;;;;;8.60;5.90;;;10.20;93.50;;;;;;5037039;28;20041;-73
2021/03/10 02:43:10;;;;;;;8.32;4.85;;;10.10;93.20;;;;;;5036001;28;20122;-73
2021/03/10 02:45:38;;;;;;;6.72;4.90;;;10.00;93.30;;;;;;5036760;28;20048;-72
2021/03/10 02:48:07;;;;;;;9.15;5.68;;;10.00;93.40;;;;;;5036161;28;20056;-73
2021/03/10 02:50:35;;;;;;;7.45;5.07;;;9.90;93.50;;;;;;5033859;28;20040;-73
2021/03/10 02:53:05;;;;;;;6.53;5.18;;;9.90;93.60;;;;;;5036667;28;20029;-73
2021/03/10 02:55:32;;;;;;;7.55;4.72;;;9.80;93.90;;;;;;5039354;28;20041;-72
2021/03/10 02:58:00;;;;;;;6.68;4.75;;;9.70;94.00;;;;;;5034523;28;20537;-73
2021/03/10 03:00:29;;;;;;;6.93;4.68;;;9.60;94.30;;;;;;5030993;28;20049;-73
2021/03/10 03:02:57;;;;;;;7.57;5.20;;;9.60;94.60;;;;;;5035100;28;20709;-73
2021/03/10 03:05:24;;;;;;;7.20;4.90;;;9.60;94.90;;;;;;5031732;28;20045;-73
2021/03/10 03:07:52;;;;;;;9.57;5.43;;;9.60;95.00;;;;;;5037516;28;20061;-73
2021/03/10 03:10:22;;;;;;;6.63;4.47;;;9.70;94.80;;;;;;5037562;28;20096;-73
2021/03/10 03:12:50;;;;;;;6.68;4.65;;;9.70;94.50;;;;;;5034238;28;20045;-73
2021/03/10 03:15:20;;;;;;;9.05;5.25;;;9.70;94.30;;;;;;5037248;28;20049;-73
2021/03/10 03:17:49;;;;;;;8.68;5.72;;;9.90;94.10;;;;;;5035650;28;20041;-73
2021/03/10 03:20:19;;;;;;;8.40;5.05;;;10.00;93.60;;;;;;5038129;28;20037;-73
2021/03/10 03:22:49;;;;;;;7.53;5.07;;;9.90;93.60;;;;;;5037502;28;20042;-73
2021/03/10 03:25:18;;;;;;;9.00;5.10;;;9.90;93.50;;;;;;5031456;28;20053;-73
2021/03/10 03:27:48;;;;;;;8.30;5.47;;;9.90;93.50;;;;;;5037273;28;20511;-73
2021/03/10 03:30:17;;;;;;;5.15;4.20;;;9.90;93.30;;;;;;5035730;28;20041;-73
2021/03/10 03:32:45;;;;;;;7.68;5.38;;;10.10;93.10;;;;;;5033039;28;20068;-73
2021/03/10 03:35:16;;;;;;;6.00;4.65;;;10.10;92.80;;;;;;5031577;28;20235;-73
2021/03/10 03:37:45;;;;;;;12.25;5.03;;;10.10;92.80;;;;;;5037547;28;20106;-73
2021/03/10 03:40:13;;;;;;;7.28;5.20;;;10.10;92.60;;;;;;5035847;28;20037;-73
2021/03/10 03:42:41;;;;;;;8.18;5.18;;;10.10;92.20;;;;;;5013767;28;20076;-73
2021/03/10 03:45:09;;;;;;;8.82;5.70;;;9.90;92.40;;;;;;5040514;28;20045;-73
2021/03/10 03:47:38;;;;;;;8.20;5.70;;;9.90;92.40;;;;;;5037923;28;20036;-73
2021/03/10 03:50:08;;;;;;;6.13;4.82;;;10.00;92.20;;;;;;5038757;28;20086;-73
2021/03/10 03:52:40;;;;;;;6.13;4.50;;;10.00;92.20;;;;;;5018418;28;20056;-73
2021/03/10 03:55:08;;;;;;;7.57;5.22;;;10.00;91.90;;;;;;5034117;28;20031;-73
2021/03/10 03:57:36;;;;;;;6.63;4.85;;;10.00;92.00;;;;;;5033618;28;20173;-73
2021/03/10 04:00:05;;;;;;;7.32;5.20;;;10.00;91.70;;;;;;5041451;28;20029;-73
2021/03/10 04:02:38;;;;;;;6.80;4.85;;;10.10;91.70;;;;;;5035943;28;20041;-73
2021/03/10 04:05:06;;;;;;;7.55;5.20;;;9.90;91.30;;;;;;5035177;28;20049;-73
2021/03/10 04:07:44;;;;;;;8.40;5.43;;;9.80;91.90;;;;;;5033541;28;20040;-73
2021/03/10 04:10:13;;;;;;;6.57;4.95;;;9.70;91.80;;;;;;5035383;28;20044;-73
2021/03/10 04:12:40;;;;;;;6.60;4.82;;;9.80;91.80;;;;;;5036529;28;20045;-74
2021/03/10 04:15:10;;;;;;;8.93;5.63;;;9.90;91.90;;;;;;5036413;28;20399;-73
2021/03/10 04:17:38;;;;;;;7.63;5.22;;;9.90;91.50;;;;;;5035152;28;20142;-73
2021/03/10 04:20:10;;;;;;;9.10;5.68;;;9.90;91.60;;;;;;5030778;28;20051;-73
2021/03/10 04:22:37;;;;;;;7.55;5.38;;;9.90;91.60;;;;;;5034047;28;20049;-73
2021/03/10 04:25:07;;;;;;;8.18;5.57;;;9.70;91.90;;;;;;5037827;28;20033;-73
2021/03/10 04:27:36;;;;;;;8.55;5.32;;;9.50;92.40;;;;;;5033005;28;20561;-73
2021/03/10 04:30:05;;;;;;;6.07;5.13;;;9.40;92.90;;;;;;5035020;28;20445;-73
2021/03/10 04:32:33;;;;;;;9.18;5.50;;;9.50;92.80;;;;;;5037384;28;20047;-74
2021/03/10 04:35:00;;;;;;;9.20;5.35;;;9.70;92.50;;;;;;5028113;28;20751;-73
2021/03/10 04:37:28;;;;;;;8.10;5.45;;;9.80;92.10;;;;;;5036399;28;20115;-73
2021/03/10 04:39:55;;;;;;;7.43;5.28;;;9.80;91.90;;;;;;5036870;28;20044;-73
2021/03/10 04:42:22;;;;;;;6.72;5.00;;;9.70;91.80;;;;;;5030278;28;20041;-73
2021/03/10 04:44:50;;;;;;;8.90;5.78;;;9.80;91.60;;;;;;5036121;28;20053;-73
2021/03/10 04:47:17;;;;;;;7.88;5.22;;;9.80;91.60;;;;;;5034783;28;20136;-73
2021/03/10 04:49:45;;;;;;;7.95;5.65;;;9.70;91.20;;;;;;5033606;28;20509;-72
2021/03/10 04:52:13;;;;;;;8.95;6.05;;;9.70;91.50;;;;;;5037097;28;20529;-73
2021/03/10 04:54:40;;;;;;;8.48;5.55;;;9.70;91.30;;;;;;5036735;28;20146;-73
2021/03/10 04:57:08;;;;;;;8.27;5.80;;;9.70;91.40;;;;;;5034677;28;20068;-73
2021/03/10 04:59:35;;;;;;;7.93;5.70;;;9.70;91.10;;;;;;5034844;28;20056;-73
2021/03/10 05:02:03;;;;;;;8.15;6.25;;;9.70;90.60;;;;;;5035448;28;20059;-73
2021/03/10 05:04:30;;;;;;;8.32;5.70;;;9.70;90.50;;;;;;5031980;28;20503;-73
2021/03/10 05:06:57;;;;;;;9.82;6.38;;;9.70;90.10;;;;;;5029377;28;20617;-73
2021/03/10 05:09:25;;;;;;;8.57;5.63;;;9.80;90.30;;;;;;5037500;28;20045;-73
2021/03/10 05:11:52;;;;;;;8.75;6.28;;;9.90;89.90;;;;;;5034692;28;20087;-73
2021/03/10 05:14:19;;;;;;;12.23;7.20;;;9.70;90.10;;;;;;5032755;28;20044;-73
2021/03/10 05:16:46;;;;;;;10.10;5.93;;;9.70;90.00;;;;;;5036375;28;20300;-73
2021/03/10 05:19:15;;;;;;;8.02;5.97;;;9.60;89.50;;;;;;5036855;28;20040;-73
2021/03/10 05:21:42;;;;;;;8.38;6.00;;;9.60;90.20;;;;;;5034024;28;20052;-73
2021/03/10 05:24:10;;;;;;;9.70;6.22;;;9.60;90.50;;;;;;5036077;28;20103;-73
2021/03/10 05:26:38;;;;;;;10.50;6.40;;;9.60;90.90;;;;;;5029825;28;20483;-73
2021/03/10 05:29:05;;;;;;;9.38;6.70;;;9.50;90.90;;;;;;5028519;28;20043;-73
2021/03/10 05:31:33;;;;;;;11.40;6.70;;;9.40;90.90;;;;;;5031788;28;20615;-73
2021/03/10 05:34:01;;;;;;;8.93;6.05;;;9.40;90.70;;;;;;5018930;28;20038;-73
2021/03/10 05:36:29;;;;;;;11.07;6.18;;;9.40;91.00;;;;;;5041416;28;20494;-73
2021/03/10 05:39:13;;;;;;;11.23;6.45;;;9.40;91.10;;;;;;5039928;28;20379;-73
2021/03/10 05:41:40;;;;;;;10.35;6.72;;;9.40;91.00;;;;;;5040487;28;20044;-72
2021/03/10 05:44:08;;;;;;;8.75;6.28;;;9.20;91.20;;;;;;5039280;28;20122;-73
2021/03/10 05:46:36;;;;;;;8.48;6.18;;;9.00;92.30;;;;;;5034086;28;20123;-73
2021/03/10 05:49:04;;;;;;;9.88;6.43;;;8.90;94.70;;;;;;5042900;28;20344;-73
2021/03/10 05:51:33;;;;;;;8.52;6.45;;;8.90;94.30;;;;;;5041966;28;20522;-73
2021/03/10 05:54:01;;;;;;;9.90;7.05;;;9.00;94.10;;;;;;5034480;28;20048;-73
2021/03/10 05:56:29;;;;;;;12.43;7.30;;;9.20;93.90;;;;;;5033149;28;20052;-73
2021/03/10 05:58:56;;;;;;;10.63;7.18;;;9.10;93.80;;;;;;5039246;28;20396;-72
2021/03/10 06:01:25;;;;;;;10.90;7.07;;;9.00;93.70;;;;;;5038466;28;20045;-73
2021/03/10 06:03:55;;;;;;;10.88;7.05;;;9.00;93.60;;;;;;5037282;28;20029;-73
2021/03/10 06:06:22;;;;;;;10.50;7.22;;;9.00;93.70;;;;;;5031112;28;20033;-73
2021/03/10 06:08:51;;;;;;;13.40;7.22;;;9.00;93.50;;;;;;5035328;28;20072;-73
2021/03/10 06:11:26;;;;;;;12.40;6.75;;;9.10;93.60;;;;;;5041954;28;20123;-73
2021/03/10 06:13:54;;;;;;;11.68;7.10;;;9.00;93.10;;;;;;5042215;28;20099;-72
2021/03/10 06:16:23;;;;;;;10.25;6.90;;;9.00;93.20;;;;;;5032363;28;20045;-73
2021/03/10 06:19:02;;;;;;;8.93;7.10;;;9.10;92.80;;;;;;5036256;28;20498;-73
2021/03/10 06:21:29;;;;;;;10.95;7.35;;;9.00;92.20;;;;;;5033384;28;20048;-73
2021/03/10 06:23:59;;;;;;;8.23;6.57;;;8.80;92.80;;;;;;5037169;28;20041;-73
2021/03/10 06:26:28;;;;;;;10.30;7.07;;;8.70;93.90;;;;;;5034531;28;20753;-73
2021/03/10 06:28:59;;;;;;;9.77;6.28;;;8.70;93.10;;;;;;5038708;28;20534;-73
2021/03/10 06:31:29;;;;;;;8.50;6.57;;;8.90;93.30;;;;;;5029243;28;20041;-73
2021/03/10 06:34:00;;;;;;;14.48;6.60;;;9.00;91.30;;;;;;5035694;28;20040;-73
2021/03/10 06:36:30;;;;;;;11.40;6.65;;;9.00;90.60;;;;;;5036081;28;20045;-73
2021/03/10 06:38:59;;;;;;;10.82;7.22;;;9.10;91.20;;;;;;5037079;28;20511;-73
2021/03/10 06:41:28;;;;;;;10.43;7.20;;;9.10;90.40;;;;;;5035751;28;20074;-73
2021/03/10 06:43:56;;;;;;;10.07;6.85;;;9.20;91.00;;;;;;5023839;28;20439;-73
2021/03/10 06:46:24;;;;;;;11.68;7.50;;;9.40;91.00;;;;;;5035137;28;20033;-73
2021/03/10 06:48:56;;;;;;;12.00;7.32;;;9.50;89.80;;;;;;5033992;28;20044;-73
2021/03/10 06:51:23;;;;;;;9.65;7.18;;;9.50;90.00;;;;;;5038035;28;20032;-73
2021/03/10 06:53:51;;;;;;;12.00;7.55;;;9.70;90.10;;;;;;5042339;28;20051;-74
2021/03/10 06:56:25;;;;;;;11.85;7.10;;;9.50;89.70;;;;;;5034843;28;20037;-74
2021/03/10 06:58:55;;;;;;;12.63;7.00;;;9.60;90.60;;;;;;5033723;28;20041;-77
2021/03/10 07:01:23;;;;;;;10.35;7.03;;;9.70;90.40;;;;;;5040455;28;20519;-74
2021/03/10 07:03:54;;;;;;;9.98;7.10;;;9.70;90.30;;;;;;5036735;28;20044;-73
2021/03/10 07:06:23;;;;;;;11.80;7.55;;;9.70;90.50;;;;;;5039823;28;20457;-74
2021/03/10 07:08:50;;;;;;;11.25;6.88;;;9.80;89.80;;;;;;5035382;28;20041;-74
2021/03/10 07:11:20;;;;;;;13.23;7.40;;;10.00;88.80;;;;;;5036730;28;20037;-75
2021/03/10 07:13:48;;;;;;;12.50;8.05;;;10.10;88.00;;;;;;5051600;28;20053;-73
2021/03/10 07:16:16;;;;;;;11.30;7.20;;;10.20;87.90;;;;;;5035745;28;20050;-74
2021/03/10 07:18:46;;;;;;;10.10;7.38;;;10.30;87.90;;;;;;5037565;28;20084;-74
2021/03/10 07:21:22;;;;;;;11.48;7.63;;;10.40;87.60;;;;;;5038825;28;20045;-74
2021/03/10 07:23:52;;;;;;;12.40;8.02;;;10.50;87.30;;;;;;5037586;28;20048;-74
2021/03/10 07:26:22;;;;;;;12.85;7.50;;;10.50;86.60;;;;;;5036166;28;20049;-74
2021/03/10 07:28:53;;;;;;;10.30;7.63;;;10.40;86.10;;;;;;5015011;28;20258;-74
2021/03/10 07:31:22;;;;;;;13.38;8.18;;;10.50;85.90;;;;;;5032384;28;20037;-74
2021/03/10 07:33:52;;;;;;;10.55;7.53;;;10.50;85.80;;;;;;5020000;28;20052;-74
2021/03/10 07:36:30;;;;;;;9.80;7.15;;;10.60;84.70;;;;;;5021117;28;20032;-74
2021/03/10 07:38:58;;;;;;;11.82;7.10;;;10.70;84.80;;;;;;5038816;28;20048;-74
2021/03/10 07:41:34;;;;;;;12.18;7.43;;;10.80;84.80;;;;;;5038567;28;20063;-74
2021/03/10 07:44:02;;;;;;;13.63;7.82;;;10.90;84.80;;;;;;5033996;28;20050;-75
2021/03/10 07:46:37;;;;;;;14.88;8.05;;;11.00;84.60;;;;;;5040390;28;20040;-75
2021/03/10 07:49:18;;;;;;;10.90;7.38;;;11.10;83.70;;;;;;5053633;28;20142;-74
2021/03/10 07:51:46;;;;;;;13.43;7.72;;;11.10;83.60;;;;;;5034747;28;20124;-75
2021/03/10 07:54:19;;;;;;;12.70;8.10;;;11.20;83.80;;;;;;5030179;28;20519;-74
2021/03/10 07:56:47;;;;;;;15.15;8.73;;;11.30;84.00;;;;;;5013700;28;20049;-74
2021/03/10 07:59:16;;;;;;;12.50;7.15;;;11.40;83.60;;;;;;5002606;28;20044;-74
2021/03/10 08:01:47;;;;;;;11.80;8.25;;;11.40;83.50;;;;;;5012819;28;20124;-74
2021/03/10 08:04:16;;;;;;;10.48;7.18;;;11.50;83.00;;;;;;5033982;28;20045;-74
2021/03/10 08:06:46;;;;;;;12.32;8.10;;;11.50;83.20;;;;;;5036860;28;20516;-74
2021/03/10 08:09:17;;;;;;;12.07;7.72;;;11.60;83.10;;;;;;5020051;28;20086;-74
2021/03/10 08:11:47;;;;;;;11.35;7.88;;;11.60;82.20;;;;;;5032553;28;20053;-74
2021/03/10 08:14:17;;;;;;;9.38;7.30;;;11.60;81.30;;;;;;5038513;28;20103;-74
2021/03/10 08:16:46;;;;;;;10.70;7.22;;;11.70;79.90;;;;;;5034159;28;20041;-74
2021/03/10 08:19:20;;;;;;;9.30;6.53;;;11.80;79.60;;;;;;5035159;28;20130;-74
2021/03/10 08:21:50;;;;;;;11.93;7.60;;;11.80;78.20;;;;;;5037556;28;20052;-74
2021/03/10 08:24:18;;;;;;;11.57;7.07;;;11.80;78.30;;;;;;5037269;28;20490;-74
2021/03/10 08:26:52;;;;;;;13.27;7.15;;;11.80;78.30;;;;;;5032111;28;20049;-74
2021/03/10 08:29:20;;;;;;;8.90;6.55;;;11.90;78.00;;;;;;5013121;28;20570;-74
2021/03/10 08:31:51;;;;;;;10.20;6.70;;;12.00;78.40;;;;;;5037228;28;20117;-74
2021/03/10 08:34:34;;;;;;;10.07;6.70;;;12.00;78.50;;;;;;5033540;28;20545;-74
2021/03/10 08:37:03;;;;;;;9.93;6.63;;;12.10;77.10;;;;;;5035202;28;20041;-74
2021/03/10 08:39:31;;;;;;;7.68;5.75;;;12.20;77.40;;;;;;5022294;28;20566;-74
2021/03/10 08:41:59;;;;;;;8.88;6.05;;;12.20;77.50;;;;;;5039149;28;20030;-74
2021/03/10 08:44:37;;;;;;;7.68;5.70;;;12.30;76.70;;;;;;5033151;28;20115;-74
2021/03/10 08:47:10;;;;;;;8.25;5.60;;;12.40;76.30;;;;;;5035294;28;20449;-75
2021/03/10 08:49:38;;;;;;;9.70;5.88;;;12.40;75.50;;;;;;5030307;28;20549;-75
2021/03/10 08:52:08;;;;;;;8.88;5.68;;;12.50;75.30;;;;;;5016188;28;20045;-75
2021/03/10 08:54:46;;;;;;;7.72;5.60;;;12.60;74.70;;;;;;5038681;28;20065;-75
2021/03/10 08:57:14;;;;;;;6.93;4.72;;;12.70;74.50;;;;;;5035437;28;20056;-74
2021/03/10 08:59:42;;;;;;;8.07;4.93;;;12.70;72.30;;;;;;5016249;28;20053;-74
2021/03/10 09:02:11;;;;;;;5.57;4.72;;;12.70;71.40;;;;;;5036286;28;20134;-74
2021/03/10 09:04:46;;;;;;;7.78;5.38;;;12.70;70.20;;;;;;5033471;28;20137;-75
2021/03/10 09:07:17;;;;;;;7.63;5.00;;;12.70;71.00;;;;;;5030230;28;20491;-75
2021/03/10 09:09:47;;;;;;;6.03;4.72;;;12.90;71.20;;;;;;5031432;28;20036;-74
2021/03/10 09:12:16;;;;;;;7.28;5.03;;;13.00;71.00;;;;;;5033920;28;20041;-74
2021/03/10 09:14:50;;;;;;;6.35;4.75;;;12.90;69.70;;;;;;5035913;28;20045;-74
2021/03/10 09:17:35;;;;;;;7.03;5.07;;;13.00;70.20;;;;;;5031288;28;20041;-74
2021/03/10 09:20:11;;;;;;;7.18;4.70;;;13.00;69.70;;;;;;5028584;28;20045;-74
2021/03/10 09:22:43;;;;;;;8.63;5.00;;;13.00;70.60;;;;;;5039390;28;20044;-74
2021/03/10 09:25:27;;;;;;;8.35;4.75;;;13.30;69.80;;;;;;5034259;28;20049;-74
2021/03/10 09:28:05;;;;;;;8.15;5.35;;;13.30;70.20;;;;;;5033060;28;20047;-74
2021/03/10 09:30:38;;;;;;;8.83;5.67;;;13.40;69.90;;;;;;5034409;28;20042;-74
2021/03/10 09:33:06;;;;;;;6.43;4.82;;;13.40;70.00;;;;;;5030764;28;20327;-74
2021/03/10 09:35:36;;;;;;;7.35;4.93;;;13.40;69.80;;;;;;5032207;28;20507;-74
2021/03/10 09:38:09;;;;;;;7.53;4.40;;;13.40;69.50;;;;;;5015749;28;20115;-74
2021/03/10 09:40:39;;;;;;;6.75;5.00;;;13.50;69.70;;;;;;5031535;28;20049;-74
2021/03/10 09:43:10;;;;;;;5.35;4.30;;;13.50;68.50;;;;;;5032658;28;20652;-74
2021/03/10 09:45:39;;;;;;;7.47;4.45;;;13.60;68.40;;;;;;5037407;28;20057;-74
2021/03/10 09:48:11;;;;;;;6.40;4.50;;;13.60;68.40;;;;;;5028416;28;20670;-74
2021/03/10 09:50:47;;;;;;;7.07;4.80;;;13.70;67.60;;;;;;5032524;28;20049;-74
2021/03/10 09:53:24;;;;;;;6.72;4.45;;;13.90;66.80;;;;;;5033620;28;20033;-74
2021/03/10 09:56:06;;;;;;;5.50;3.95;;;13.90;67.50;;;;;;5035101;28;20140;-75
2021/03/10 09:58:48;;;;;;;5.07;3.67;;;14.00;66.00;;;;;;5028231;28;20077;-75
2021/03/10 10:01:19;;;;;;;11.00;4.70;;;14.00;65.40;;;;;;5029197;28;20365;-75
2021/03/10 10:03:48;;;;;;;5.50;3.88;;;14.10;64.30;;;;;;5031464;28;20057;-75
2021/03/10 10:06:18;;;;;;;5.55;3.78;;;14.20;63.70;;;;;;5029616;28;20122;-75
2021/03/10 10:08:50;;;;;;;5.45;3.63;;;14.30;64.20;;;;;;5036038;28;20647;-75
2021/03/10 10:11:22;;;;;;;4.75;3.63;;;14.30;64.10;;;;;;5030225;28;20051;-74
2021/03/10 10:13:51;;;;;;;6.43;3.60;;;14.30;64.30;;;;;;5033077;28;20033;-74
2021/03/10 10:16:20;;;;;;;4.28;3.40;;;14.40;63.60;;;;;;5031739;28;20037;-75
2021/03/10 10:18:51;;;;;;;4.90;3.38;;;14.50;63.30;;;;;;5036619;28;20504;-75
2021/03/10 10:21:20;;;;;;;6.00;3.65;;;14.60;63.50;;;;;;5019420;28;20592;-75
2021/03/10 10:23:49;;;;;;;6.57;3.70;;;14.60;62.90;;;;;;5035060;28;20041;-75
2021/03/10 10:26:21;;;;;;;5.82;3.72;;;14.70;62.70;;;;;;5037380;28;20045;-75
2021/03/10 10:28:51;;;;;;;7.50;3.65;;;14.70;62.40;;;;;;5039641;28;20041;-76
2021/03/10 10:31:39;;;;;;;5.47;3.20;;;14.80;62.10;;;;;;5035387;28;20137;-74
2021/03/10 10:34:08;;;;;;;4.47;3.20;;;14.90;63.00;;;;;;5038426;28;20181;-74
2021/03/10 10:36:37;;;;;;;5.25;3.58;;;14.90;63.00;;;;;;5036750;28;20179;-74
2021/03/10 10:39:20;;;;;;;6.18;3.58;;;15.10;63.00;;;;;;5033774;28;20041;-74
2021/03/10 10:41:48;;;;;;;6.05;3.88;;;15.10;62.10;;;;;;5038531;28;20037;-74
2021/03/10 10:44:19;;;;;;;6.63;3.58;;;15.30;62.10;;;;;;5037981;28;20248;-75
2021/03/10 10:46:47;;;;;;;3.50;2.83;;;15.40;62.00;;;;;;5032744;28;20123;-75
2021/03/10 10:49:15;;;;;;;4.72;3.10;;;15.40;61.30;;;;;;5038537;28;20118;-74
2021/03/10 10:51:46;;;;;;;6.15;3.38;;;15.50;61.80;;;;;;5032483;28;20041;-74
2021/03/10 10:54:23;;;;;;;;;;;15.60;61.60;;;;;;5034848;28;20044;-74
2021/03/10 10:56:52;;;;;;;4.45;3.17;;;15.80;61.90;;;;;;5034699;28;19924;-74
2021/03/10 10:59:29;;;;;;;6.47;3.33;;;16.10;61.50;;;;;;5032037;28;20053;-74
2021/03/10 11:02:01;;;;;;;3.58;3.13;;;16.40;61.90;;;;;;5023705;28;20041;-74
2021/03/10 11:04:29;;;;;;;4.22;3.15;;;16.10;60.80;;;;;;5036164;28;20067;-75
2021/03/10 11:06:57;;;;;;;4.38;3.40;;;15.70;61.00;;;;;;5032724;28;20576;-75
2021/03/10 11:09:25;;;;;;;6.43;3.10;;;15.70;61.90;;;;;;5032218;28;20479;-74
2021/03/10 11:11:53;;;;;;;4.28;3.42;;;15.70;61.50;;;;;;5029644;28;20114;-75
2021/03/10 11:14:24;;;;;;;7.25;3.20;;;15.80;61.60;;;;;;5031662;28;20045;-75
2021/03/10 11:16:59;;;;;;;4.00;3.15;;;15.80;61.60;;;;;;5023501;28;20429;-72
2021/03/10 11:19:42;;;;;;;3.72;2.92;;;15.90;61.50;;;;;;5032856;28;20059;-72
2021/03/10 11:22:10;;;;;;;5.10;3.05;;;16.00;62.30;;;;;;5020813;28;20044;-73
2021/03/10 11:24:39;;;;;;;8.18;3.67;;;16.00;61.40;;;;;;5035884;28;20925;-72
2021/03/10 11:27:08;;;;;;;4.30;3.00;;;16.20;61.70;;;;;;5036996;28;20704;-71
2021/03/10 11:29:38;;;;;;;4.53;3.03;;;16.30;61.20;;;;;;5033545;28;20430;-72
2021/03/10 11:32:08;;;;;;;3.72;2.95;;;16.40;60.60;;;;;;5039051;28;20518;-71
2021/03/10 11:34:40;;;;;;;5.65;3.25;;;16.50;60.10;;;;;;5035655;28;20034;-72
2021/03/10 11:37:08;;;;;;;4.43;3.22;;;16.50;60.90;;;;;;5035338;28;20495;-72
2021/03/10 11:39:37;;;;;;;4.03;3.20;;;16.50;61.10;;;;;;5034880;28;20529;-72
2021/03/10 11:42:07;;;;;;;5.05;3.40;;;16.70;61.40;;;;;;5021662;28;20037;-73
2021/03/10 11:44:35;;;;;;;4.95;3.38;;;16.90;59.90;;;;;;5029085;28;20050;-72
2021/03/10 11:47:03;;;;;;;4.28;3.50;;;17.00;60.10;;;;;;5017017;28;20028;-72
2021/03/10 11:49:31;;;;;;;5.05;3.30;;;17.10;59.60;;;;;;5033534;28;20122;-72
2021/03/10 11:51:59;;;;;;;5.97;3.17;;;17.00;59.30;;;;;;5033151;28;20423;-72
2021/03/10 11:54:27;;;;;;;4.10;3.10;;;17.10;59.90;;;;;;5031719;28;20123;-72
2021/03/10 11:56:55;;;;;;;6.95;3.38;;;17.00;59.70;;;;;;5038153;28;20380;-72
2021/03/10 11:59:23;;;;;;;5.65;3.13;;;17.10;59.20;;;;;;5037796;28;20041;-72
2021/03/10 12:02:00;;;;;;;5.10;3.25;;;17.20;58.80;;;;;;5029069;28;20135;-72
2021/03/10 12:04:34;;;;;;;4.75;2.90;;;17.20;60.00;;;;;;5033966;28;20045;-71
2021/03/10 12:07:04;;;;;;;4.35;2.90;;;17.30;59.80;;;;;;5038586;28;20033;-71
2021/03/10 12:09:32;;;;;;;6.20;3.72;;;17.30;59.00;;;;;;5036975;28;20033;-72
2021/03/10 12:11:59;;;;;;;5.07;3.53;;;17.10;58.10;;;;;;5033295;28;20072;-72
2021/03/10 12:14:33;;;;;;;5.45;3.33;;;17.00;57.90;;;;;;5039692;28;20070;-71
2021/03/10 12:17:01;;;;;;;4.32;3.20;;;17.10;59.00;;;;;;5037046;28;20052;-71
2021/03/10 12:19:28;;;;;;;4.50;3.50;;;17.30;58.00;;;;;;5037405;28;20129;-72
2021/03/10 12:21:57;;;;;;;3.97;3.22;;;17.50;58.10;;;;;;5028812;28;20030;-71
2021/03/10 12:24:24;;;;;;;4.70;3.08;;;17.60;58.00;;;;;;5037342;28;20036;-72
2021/03/10 12:26:53;;;;;;;5.45;3.30;;;17.70;57.80;;;;;;5034643;28;20134;-72
2021/03/10 12:29:20;;;;;;;4.25;3.08;;;17.80;57.40;;;;;;5032264;28;20278;-72
2021/03/10 12:31:48;;;;;;;4.15;2.80;;;17.80;57.60;;;;;;5022196;28;20048;-71
2021/03/10 12:34:16;;;;;;;4.25;3.50;;;17.60;57.90;;;;;;5034614;28;20033;-72
2021/03/10 12:36:43;;;;;;;6.22;4.00;;;17.50;58.50;;;;;;5035363;28;20132;-71
2021/03/10 12:39:12;;;;;;;4.45;3.58;;;17.50;58.10;;;;;;5017545;28;20037;-72
2021/03/10 12:41:39;;;;;;;5.13;3.40;;;17.60;57.80;;;;;;5027175;28;20498;-72
2021/03/10 12:44:07;;;;;;;3.65;3.17;;;17.40;57.10;;;;;;5036062;28;20060;-72
2021/03/10 12:46:35;;;;;;;4.70;3.60;;;17.50;58.00;;;;;;5031628;28;20060;-72
2021/03/10 12:49:04;;;;;;;4.13;3.47;;;17.50;56.60;;;;;;5033905;28;20037;-72
2021/03/10 12:51:32;;;;;;;6.47;4.15;;;17.50;57.60;;;;;;5034763;28;20123;-73
2021/03/10 12:53:59;;;;;;;4.63;3.50;;;17.60;57.60;;;;;;5034559;28;20045;-72
2021/03/10 12:56:27;;;;;;;6.63;3.28;;;17.80;57.50;;;;;;5031764;28;20037;-72
2021/03/10 12:58:55;;;;;;;5.53;3.00;;;17.90;56.90;;;;;;5035278;28;20588;-72
2021/03/10 13:01:22;;;;;;;6.95;3.38;;;18.10;57.90;;;;;;5033509;28;20040;-73